Texas General Land Office
 Texas General Land Office
 George P. Bush, Commissioner

 Oil Spill Prevention
 & Response

Texas Automated Buoy System
Real Time Ocean Observations
Supporting Oil Spill Prevention and
Response since 1995
Geochemical and Environmental Research Group

TABS Buoy V -- Texas Automated Buoy System

TABS Buoy V Conditions at 01/22/2019 13:00 UTC (01/22/2019 07:00 CST)
27° 53.7960'N   93° 35.8380'W
AA3900 DCS - sensor depth 2m
Anemometer height: 4m
Water Depth: 295 feet (89 meters)
Speed: 18.88 cm/s (0.37 kts) Direction: 30 °T (NNE) Water Temp: 21°C (70 °F)
System Voltage: 11.8 V Signal Strength: -1.9 dB Ping Count: 145
Wind: 13.3 m/s (25.8 kts)
          From 165°T (SSE)
Air Temp: 11 °C (51 °F)
Relative Humidity:  85 %
Pressure: 1016.2 mb (30.01 inHg)
Waves: 2.9 m (9.5 ft) @ 7 sec
  


IMPORTANT: Notice to Mariners


Today's Velocity Data (download)

   Date   |  Time  |   East |   North|   Speed|  Dir | WaterT |
          |  (UTC) |  (cm/s)|  (cm/s)|  (cm/s)| (°T) |  (°C)  |
==========+========+========+========+========+======+========+
01/22/2019 00:00:00     1.23     9.48     9.56    7.4   21.3
01/22/2019 00:30:00     8.39    13.68    16.05   31.5   21.3
01/22/2019 01:00:00    -0.08    11.71    11.71  359.6   21.3
01/22/2019 01:30:00     5.35    15.49    16.39   19.1   21.3
01/22/2019 02:00:00     5.17    14.57    15.46   19.5   21.3
01/22/2019 02:30:00     5.44    15.75    16.66   19.1   21.3
01/22/2019 03:00:00     4.90    15.54    16.29   17.5   21.3
01/22/2019 03:30:00     2.46    18.39    18.55    7.6   21.3
01/22/2019 04:00:00     3.64    19.60    19.94   10.5   21.3
01/22/2019 04:30:00     5.54    19.78    20.54   15.6   21.3
01/22/2019 05:00:00     5.53    20.22    20.96   15.3   21.3
01/22/2019 05:30:00     3.00    19.30    19.53    8.8   21.3
01/22/2019 06:00:00     3.84    18.30    18.70   11.9   21.2
01/22/2019 06:30:00     1.92    14.75    14.87    7.4   21.2
01/22/2019 07:00:00     8.53    18.22    20.12   25.1   21.2
01/22/2019 07:30:00     7.19    16.77    18.25   23.2   21.2
01/22/2019 08:00:00     3.81    17.16    17.58   12.5   21.2
01/22/2019 08:30:00    10.52    16.61    19.66   32.3   21.2
01/22/2019 09:00:00     7.35    19.02    20.39   21.1   21.2
01/22/2019 09:30:00     7.45    17.73    19.23   22.8   21.2
01/22/2019 10:00:00    10.10    19.43    21.90   27.5   21.2
01/22/2019 10:30:00     2.93    16.87    17.12    9.9   21.2
01/22/2019 11:00:00     8.42    17.05    19.02   26.3   21.2
01/22/2019 11:30:00     4.59    15.12    15.80   16.9   21.2
01/22/2019 12:00:00     6.61    17.11    18.34   21.1   21.2
01/22/2019 12:30:00     7.49    15.07    16.83   26.4   21.2
01/22/2019 13:00:00     9.41    16.37    18.88   29.9   21.2



       
  Today's Wave Data

   Date   |  Time  |Sig Wave Ht| Peak Period|
          |  (UTC) | (meters)  |    (sec)   |
==========+========+===========+============+
01/22/2019 00:20:58      1.0        4
01/22/2019 01:20:58      1.1        4
01/22/2019 02:20:59      1.2        5
01/22/2019 03:20:58      1.4        5
01/22/2019 04:20:58      1.5        5
01/22/2019 05:20:59      1.7        6
01/22/2019 06:20:58      2.0        6
01/22/2019 07:20:58      1.8        6
01/22/2019 08:20:58      2.1        6
01/22/2019 09:20:58      2.1        6
01/22/2019 10:20:58      2.5        7
01/22/2019 11:20:58      2.6        7
01/22/2019 12:20:58      2.7        6
01/22/2019 13:20:58      2.9        7
       
 

Today's Temperature - Salinity Data     (Download)


   Date   |  Time  |   Temp |   Cond |Salinity| Density|SoundVel|
          |  (UTC) |   (°C) | (ms/cm)|        | kg/m^3 |  (m/s) |
==========+========+========+========+========+========+========+
01/22/2019 00:00:00    21.29    50.99    36.41     0.00     0.00
01/22/2019 00:30:00    21.29    50.98    36.41     0.00     0.00
01/22/2019 01:00:00    21.28    50.98    36.41     0.00     0.00
01/22/2019 01:30:00    21.29    50.98    36.41     0.00     0.00
01/22/2019 02:00:00    21.29    50.99    36.41     0.00     0.00
01/22/2019 02:30:00    21.30    51.00    36.41     0.00     0.00
01/22/2019 03:00:00    21.28    50.98    36.41     0.00     0.00
01/22/2019 03:30:00    21.29    50.98    36.41     0.00     0.00
01/22/2019 04:00:00    21.28    50.97    36.41     0.00     0.00
01/22/2019 04:30:00    21.27    50.97    36.41     0.00     0.00
01/22/2019 05:00:00    21.28    50.97    36.41     0.00     0.00
01/22/2019 05:30:00    21.28    50.98    36.41     0.00     0.00
01/22/2019 06:00:00    21.27    50.97    36.41     0.00     0.00
01/22/2019 06:30:00    21.27    50.97    36.41     0.00     0.00
01/22/2019 07:00:00    21.27    50.97    36.41     0.00     0.00
01/22/2019 07:30:00    21.27    50.97    36.41     0.00     0.00
01/22/2019 08:00:00    21.26    50.96    36.41     0.00     0.00
01/22/2019 08:30:00    21.27    50.97    36.41     0.00     0.00
01/22/2019 09:00:00    21.27    50.97    36.41     0.00     0.00
01/22/2019 09:30:00    21.26    50.96    36.41     0.00     0.00
01/22/2019 10:00:00    21.28    50.98    36.41     0.00     0.00
01/22/2019 10:30:00    21.28    50.98    36.41     0.00     0.00
01/22/2019 11:00:00    21.27    50.97    36.41     0.00     0.00
01/22/2019 11:30:00    21.26    50.96    36.41     0.00     0.00
01/22/2019 12:00:00    21.27    50.97    36.41     0.00     0.00
01/22/2019 12:30:00    21.26    50.96    36.41     0.00     0.00
01/22/2019 13:00:00    21.26    50.96    36.41     0.00     0.00